sensor_id;sensor_type;location;lat;lon;timestamp;temperature;humidity
37844;DHT22;63793;57.632;18.292;2023-04-03T00:00:33;0.20;99.90
37844;DHT22;63793;57.632;18.292;2023-04-03T00:03:01;0.20;99.90
37844;DHT22;63793;57.632;18.292;2023-04-03T00:05:28;0.20;99.90
37844;DHT22;63793;57.632;18.292;2023-04-03T00:07:55;0.10;99.90
37844;DHT22;63793;57.632;18.292;2023-04-03T00:10:22;0.10;99.90
37844;DHT22;63793;57.632;18.292;2023-04-03T00:12:49;0.10;99.90
37844;DHT22;63793;57.632;18.292;2023-04-03T00:15:16;0.10;99.90
37844;DHT22;63793;57.632;18.292;2023-04-03T00:17:43;0.10;99.90
37844;DHT22;63793;57.632;18.292;2023-04-03T00:20:10;0.10;99.90
37844;DHT22;63793;57.632;18.292;2023-04-03T00:22:37;0.10;99.90
37844;DHT22;63793;57.632;18.292;2023-04-03T00:25:04;0.10;99.90
37844;DHT22;63793;57.632;18.292;2023-04-03T00:27:31;0.10;99.90
37844;DHT22;63793;57.632;18.292;2023-04-03T00:29:58;0.10;99.90
37844;DHT22;63793;57.632;18.292;2023-04-03T00:32:25;0.10;99.90
37844;DHT22;63793;57.632;18.292;2023-04-03T00:34:52;0.10;99.90
37844;DHT22;63793;57.632;18.292;2023-04-03T00:37:19;0.10;99.90
37844;DHT22;63793;57.632;18.292;2023-04-03T00:39:46;0.00;99.90
37844;DHT22;63793;57.632;18.292;2023-04-03T00:42:12;0.10;99.90
37844;DHT22;63793;57.632;18.292;2023-04-03T00:47:09;0.00;99.90
37844;DHT22;63793;57.632;18.292;2023-04-03T00:49:38;0.10;99.90
37844;DHT22;63793;57.632;18.292;2023-04-03T00:52:08;0.10;99.90
37844;DHT22;63793;57.632;18.292;2023-04-03T00:54:36;0.10;99.90
37844;DHT22;63793;57.632;18.292;2023-04-03T00:57:05;0.10;99.90
37844;DHT22;63793;57.632;18.292;2023-04-03T00:59:36;0.10;99.90
37844;DHT22;63793;57.632;18.292;2023-04-03T01:02:05;0.10;99.90
37844;DHT22;63793;57.632;18.292;2023-04-03T01:04:34;0.10;99.90
37844;DHT22;63793;57.632;18.292;2023-04-03T01:07:16;0.20;99.90
37844;DHT22;63793;57.632;18.292;2023-04-03T01:09:45;0.20;99.90
37844;DHT22;63793;57.632;18.292;2023-04-03T01:12:28;0.20;99.90
37844;DHT22;63793;57.632;18.292;2023-04-03T01:15:02;0.20;99.90
37844;DHT22;63793;57.632;18.292;2023-04-03T01:26:04;0.20;99.90
37844;DHT22;63793;57.632;18.292;2023-04-03T01:28:34;0.20;99.90
37844;DHT22;63793;57.632;18.292;2023-04-03T01:31:41;0.20;99.90
37844;DHT22;63793;57.632;18.292;2023-04-03T01:34:09;0.20;99.90
37844;DHT22;63793;57.632;18.292;2023-04-03T01:36:36;0.20;99.90
37844;DHT22;63793;57.632;18.292;2023-04-03T01:39:03;0.20;99.90
37844;DHT22;63793;57.632;18.292;2023-04-03T01:41:31;0.20;99.90
37844;DHT22;63793;57.632;18.292;2023-04-03T01:44:07;0.20;99.90
37844;DHT22;63793;57.632;18.292;2023-04-03T01:46:34;0.20;99.90
37844;DHT22;63793;57.632;18.292;2023-04-03T01:49:01;0.20;99.90
37844;DHT22;63793;57.632;18.292;2023-04-03T01:51:28;0.20;99.90
37844;DHT22;63793;57.632;18.292;2023-04-03T01:53:56;0.20;99.90
37844;DHT22;63793;57.632;18.292;2023-04-03T01:56:23;0.20;99.90
37844;DHT22;63793;57.632;18.292;2023-04-03T01:58:49;0.20;99.90
37844;DHT22;63793;57.632;18.292;2023-04-03T02:01:17;0.20;99.90
37844;DHT22;63793;57.632;18.292;2023-04-03T02:03:44;0.20;99.90
37844;DHT22;63793;57.632;18.292;2023-04-03T02:06:11;0.30;99.90
37844;DHT22;63793;57.632;18.292;2023-04-03T02:08:38;0.30;99.90
37844;DHT22;63793;57.632;18.292;2023-04-03T02:11:05;0.30;99.90
37844;DHT22;63793;57.632;18.292;2023-04-03T02:13:32;0.30;99.90
37844;DHT22;63793;57.632;18.292;2023-04-03T02:16:05;0.30;99.90
37844;DHT22;63793;57.632;18.292;2023-04-03T02:18:32;0.30;99.90
37844;DHT22;63793;57.632;18.292;2023-04-03T02:20:59;0.30;99.90
37844;DHT22;63793;57.632;18.292;2023-04-03T02:23:25;0.30;99.90
37844;DHT22;63793;57.632;18.292;2023-04-03T02:25:52;0.30;99.90
37844;DHT22;63793;57.632;18.292;2023-04-03T02:28:21;0.30;99.90
37844;DHT22;63793;57.632;18.292;2023-04-03T02:30:48;0.30;99.90
37844;DHT22;63793;57.632;18.292;2023-04-03T02:33:15;0.30;99.90
37844;DHT22;63793;57.632;18.292;2023-04-03T02:35:42;0.30;99.90
37844;DHT22;63793;57.632;18.292;2023-04-03T02:38:09;0.30;99.90
37844;DHT22;63793;57.632;18.292;2023-04-03T02:40:37;0.30;99.90
37844;DHT22;63793;57.632;18.292;2023-04-03T02:43:04;0.30;99.90
37844;DHT22;63793;57.632;18.292;2023-04-03T02:45:32;0.30;99.90
37844;DHT22;63793;57.632;18.292;2023-04-03T02:47:59;0.30;99.90
37844;DHT22;63793;57.632;18.292;2023-04-03T02:50:26;0.30;99.90
37844;DHT22;63793;57.632;18.292;2023-04-03T02:52:53;0.40;99.90
37844;DHT22;63793;57.632;18.292;2023-04-03T02:55:20;0.40;99.90
37844;DHT22;63793;57.632;18.292;2023-04-03T02:57:49;0.40;99.90
37844;DHT22;63793;57.632;18.292;2023-04-03T03:00:17;0.40;99.90
37844;DHT22;63793;57.632;18.292;2023-04-03T03:02:44;0.40;99.90
37844;DHT22;63793;57.632;18.292;2023-04-03T03:05:11;0.40;99.90
37844;DHT22;63793;57.632;18.292;2023-04-03T03:07:38;0.50;99.90
37844;DHT22;63793;57.632;18.292;2023-04-03T03:10:05;0.50;99.90
37844;DHT22;63793;57.632;18.292;2023-04-03T03:12:32;0.50;99.90
37844;DHT22;63793;57.632;18.292;2023-04-03T03:14:59;0.50;99.90
37844;DHT22;63793;57.632;18.292;2023-04-03T03:17:26;0.50;99.90
37844;DHT22;63793;57.632;18.292;2023-04-03T03:19:53;0.50;99.90
37844;DHT22;63793;57.632;18.292;2023-04-03T03:22:20;0.50;99.90
37844;DHT22;63793;57.632;18.292;2023-04-03T03:24:47;0.50;99.90
37844;DHT22;63793;57.632;18.292;2023-04-03T03:27:14;0.50;99.90
37844;DHT22;63793;57.632;18.292;2023-04-03T03:29:42;0.50;99.90
37844;DHT22;63793;57.632;18.292;2023-04-03T03:32:10;0.50;99.90
37844;DHT22;63793;57.632;18.292;2023-04-03T03:34:37;0.50;99.90
37844;DHT22;63793;57.632;18.292;2023-04-03T03:37:04;0.50;99.90
37844;DHT22;63793;57.632;18.292;2023-04-03T03:39:31;0.50;99.90
37844;DHT22;63793;57.632;18.292;2023-04-03T03:41:58;0.50;99.90
37844;DHT22;63793;57.632;18.292;2023-04-03T03:44:25;0.50;99.90
37844;DHT22;63793;57.632;18.292;2023-04-03T03:46:52;0.50;99.90
37844;DHT22;63793;57.632;18.292;2023-04-03T03:49:20;0.50;99.90
37844;DHT22;63793;57.632;18.292;2023-04-03T03:51:47;0.50;99.90
37844;DHT22;63793;57.632;18.292;2023-04-03T03:54:14;0.60;99.90
37844;DHT22;63793;57.632;18.292;2023-04-03T03:56:41;0.60;99.90
37844;DHT22;63793;57.632;18.292;2023-04-03T03:59:08;0.60;99.90
37844;DHT22;63793;57.632;18.292;2023-04-03T04:01:35;0.60;99.90
37844;DHT22;63793;57.632;18.292;2023-04-03T04:04:02;0.50;99.90
37844;DHT22;63793;57.632;18.292;2023-04-03T04:06:30;0.50;99.90
37844;DHT22;63793;57.632;18.292;2023-04-03T04:09:02;0.50;99.90
37844;DHT22;63793;57.632;18.292;2023-04-03T04:11:29;0.50;99.90
37844;DHT22;63793;57.632;18.292;2023-04-03T04:13:56;0.50;99.90
37844;DHT22;63793;57.632;18.292;2023-04-03T04:16:26;0.50;99.90
37844;DHT22;63793;57.632;18.292;2023-04-03T04:18:54;0.50;99.90
37844;DHT22;63793;57.632;18.292;2023-04-03T04:21:22;0.50;99.90
37844;DHT22;63793;57.632;18.292;2023-04-03T04:23:51;0.50;99.90
37844;DHT22;63793;57.632;18.292;2023-04-03T04:26:19;0.60;99.90
37844;DHT22;63793;57.632;18.292;2023-04-03T04:28:47;0.60;99.90
37844;DHT22;63793;57.632;18.292;2023-04-03T04:31:14;0.60;99.90
37844;DHT22;63793;57.632;18.292;2023-04-03T04:33:41;0.60;99.90
37844;DHT22;63793;57.632;18.292;2023-04-03T04:36:10;0.70;99.90
37844;DHT22;63793;57.632;18.292;2023-04-03T04:38:37;0.70;99.90
37844;DHT22;63793;57.632;18.292;2023-04-03T04:41:05;0.70;99.90
37844;DHT22;63793;57.632;18.292;2023-04-03T04:43:33;0.70;99.90
37844;DHT22;63793;57.632;18.292;2023-04-03T04:46:05;0.80;99.90
37844;DHT22;63793;57.632;18.292;2023-04-03T04:48:37;0.80;99.90
37844;DHT22;63793;57.632;18.292;2023-04-03T04:51:05;0.90;99.90
37844;DHT22;63793;57.632;18.292;2023-04-03T04:53:34;0.90;99.90
37844;DHT22;63793;57.632;18.292;2023-04-03T04:56:02;1.00;99.90
37844;DHT22;63793;57.632;18.292;2023-04-03T04:58:30;1.10;99.90
37844;DHT22;63793;57.632;18.292;2023-04-03T05:01:02;1.10;99.90
37844;DHT22;63793;57.632;18.292;2023-04-03T05:03:30;1.20;99.90
37844;DHT22;63793;57.632;18.292;2023-04-03T05:05:58;1.20;99.90
37844;DHT22;63793;57.632;18.292;2023-04-03T05:08:25;1.30;99.90
37844;DHT22;63793;57.632;18.292;2023-04-03T05:10:52;1.30;99.90
37844;DHT22;63793;57.632;18.292;2023-04-03T05:13:23;1.30;99.90
37844;DHT22;63793;57.632;18.292;2023-04-03T05:15:50;1.30;99.90
37844;DHT22;63793;57.632;18.292;2023-04-03T05:18:17;1.30;99.90
37844;DHT22;63793;57.632;18.292;2023-04-03T05:20:44;1.30;99.90
37844;DHT22;63793;57.632;18.292;2023-04-03T05:23:11;1.40;99.90
37844;DHT22;63793;57.632;18.292;2023-04-03T05:25:39;1.40;99.90
37844;DHT22;63793;57.632;18.292;2023-04-03T05:28:07;1.40;99.90
37844;DHT22;63793;57.632;18.292;2023-04-03T05:30:34;1.40;99.90
37844;DHT22;63793;57.632;18.292;2023-04-03T05:33:02;1.40;99.90
37844;DHT22;63793;57.632;18.292;2023-04-03T05:35:37;1.40;99.90
37844;DHT22;63793;57.632;18.292;2023-04-03T05:38:11;1.50;99.90
37844;DHT22;63793;57.632;18.292;2023-04-03T05:40:38;1.50;99.90
37844;DHT22;63793;57.632;18.292;2023-04-03T05:43:06;1.50;99.90
37844;DHT22;63793;57.632;18.292;2023-04-03T05:45:36;1.60;99.90
37844;DHT22;63793;57.632;18.292;2023-04-03T05:48:03;1.60;99.90
37844;DHT22;63793;57.632;18.292;2023-04-03T05:50:30;1.60;99.90
37844;DHT22;63793;57.632;18.292;2023-04-03T05:52:59;1.60;99.90
37844;DHT22;63793;57.632;18.292;2023-04-03T05:55:29;1.60;99.90
37844;DHT22;63793;57.632;18.292;2023-04-03T05:57:56;1.60;99.90
37844;DHT22;63793;57.632;18.292;2023-04-03T06:00:23;1.60;99.90
37844;DHT22;63793;57.632;18.292;2023-04-03T06:02:59;1.60;99.90
37844;DHT22;63793;57.632;18.292;2023-04-03T06:05:26;1.60;99.90
37844;DHT22;63793;57.632;18.292;2023-04-03T06:07:53;1.60;99.90
37844;DHT22;63793;57.632;18.292;2023-04-03T06:10:20;1.50;99.90
37844;DHT22;63793;57.632;18.292;2023-04-03T06:12:47;1.50;99.90
37844;DHT22;63793;57.632;18.292;2023-04-03T06:15:14;1.50;99.90
37844;DHT22;63793;57.632;18.292;2023-04-03T06:17:43;1.50;99.90
37844;DHT22;63793;57.632;18.292;2023-04-03T06:20:11;1.60;99.90
37844;DHT22;63793;57.632;18.292;2023-04-03T06:22:39;1.60;99.90
37844;DHT22;63793;57.632;18.292;2023-04-03T06:25:06;1.70;99.90
37844;DHT22;63793;57.632;18.292;2023-04-03T06:27:33;1.70;99.90
37844;DHT22;63793;57.632;18.292;2023-04-03T06:30:00;1.70;99.90
37844;DHT22;63793;57.632;18.292;2023-04-03T06:32:27;1.70;99.90
37844;DHT22;63793;57.632;18.292;2023-04-03T06:34:54;1.80;99.90
37844;DHT22;63793;57.632;18.292;2023-04-03T06:37:22;1.80;99.90
37844;DHT22;63793;57.632;18.292;2023-04-03T06:39:52;1.90;99.90
37844;DHT22;63793;57.632;18.292;2023-04-03T06:42:19;2.00;99.90
37844;DHT22;63793;57.632;18.292;2023-04-03T06:44:53;2.00;99.90
37844;DHT22;63793;57.632;18.292;2023-04-03T06:47:20;2.00;99.90
37844;DHT22;63793;57.632;18.292;2023-04-03T06:49:47;2.00;99.90
37844;DHT22;63793;57.632;18.292;2023-04-03T06:52:14;1.90;99.90
37844;DHT22;63793;57.632;18.292;2023-04-03T06:54:41;2.00;99.90
37844;DHT22;63793;57.632;18.292;2023-04-03T06:57:08;2.00;99.90
37844;DHT22;63793;57.632;18.292;2023-04-03T06:59:35;2.00;99.90
37844;DHT22;63793;57.632;18.292;2023-04-03T07:02:03;2.00;99.90
37844;DHT22;63793;57.632;18.292;2023-04-03T07:04:31;1.90;99.90
37844;DHT22;63793;57.632;18.292;2023-04-03T07:06:58;2.00;99.90
37844;DHT22;63793;57.632;18.292;2023-04-03T07:09:24;1.90;99.90
37844;DHT22;63793;57.632;18.292;2023-04-03T07:11:51;2.00;99.90
37844;DHT22;63793;57.632;18.292;2023-04-03T07:14:18;2.00;99.90
37844;DHT22;63793;57.632;18.292;2023-04-03T07:16:45;2.00;99.90
37844;DHT22;63793;57.632;18.292;2023-04-03T07:19:12;2.10;99.90
37844;DHT22;63793;57.632;18.292;2023-04-03T07:21:39;2.00;99.90
37844;DHT22;63793;57.632;18.292;2023-04-03T07:24:07;2.00;99.90
37844;DHT22;63793;57.632;18.292;2023-04-03T07:26:40;2.00;99.90
37844;DHT22;63793;57.632;18.292;2023-04-03T07:29:07;2.00;99.90
37844;DHT22;63793;57.632;18.292;2023-04-03T07:31:35;2.00;99.90
37844;DHT22;63793;57.632;18.292;2023-04-03T07:34:02;2.10;99.90
37844;DHT22;63793;57.632;18.292;2023-04-03T07:36:29;2.10;99.90
37844;DHT22;63793;57.632;18.292;2023-04-03T07:38:59;2.20;99.90
37844;DHT22;63793;57.632;18.292;2023-04-03T07:41:26;2.10;99.90
37844;DHT22;63793;57.632;18.292;2023-04-03T07:43:53;2.10;99.90
37844;DHT22;63793;57.632;18.292;2023-04-03T07:46:21;2.10;99.90
37844;DHT22;63793;57.632;18.292;2023-04-03T07:48:48;2.00;99.90
37844;DHT22;63793;57.632;18.292;2023-04-03T07:51:15;2.00;99.90
37844;DHT22;63793;57.632;18.292;2023-04-03T07:53:42;2.00;99.90
37844;DHT22;63793;57.632;18.292;2023-04-03T07:56:09;2.00;99.90
37844;DHT22;63793;57.632;18.292;2023-04-03T07:58:37;2.00;99.90
37844;DHT22;63793;57.632;18.292;2023-04-03T08:01:04;2.00;99.90
37844;DHT22;63793;57.632;18.292;2023-04-03T08:03:31;2.10;99.90
37844;DHT22;63793;57.632;18.292;2023-04-03T08:06:06;2.20;99.90
37844;DHT22;63793;57.632;18.292;2023-04-03T08:08:41;2.20;99.90
37844;DHT22;63793;57.632;18.292;2023-04-03T08:11:08;2.10;99.90
37844;DHT22;63793;57.632;18.292;2023-04-03T08:13:35;2.10;99.90
37844;DHT22;63793;57.632;18.292;2023-04-03T08:16:13;2.10;99.90
37844;DHT22;63793;57.632;18.292;2023-04-03T08:18:42;2.30;99.90
37844;DHT22;63793;57.632;18.292;2023-04-03T08:21:10;2.30;99.90
37844;DHT22;63793;57.632;18.292;2023-04-03T08:23:38;2.30;99.90
37844;DHT22;63793;57.632;18.292;2023-04-03T08:26:10;2.20;99.90
37844;DHT22;63793;57.632;18.292;2023-04-03T08:28:39;2.20;99.90
37844;DHT22;63793;57.632;18.292;2023-04-03T08:31:08;2.20;99.90
37844;DHT22;63793;57.632;18.292;2023-04-03T08:33:38;2.20;99.90
37844;DHT22;63793;57.632;18.292;2023-04-03T08:36:18;2.20;99.90
37844;DHT22;63793;57.632;18.292;2023-04-03T08:38:46;2.20;99.90
37844;DHT22;63793;57.632;18.292;2023-04-03T08:41:33;2.20;99.90
37844;DHT22;63793;57.632;18.292;2023-04-03T08:44:22;2.20;99.90
37844;DHT22;63793;57.632;18.292;2023-04-03T08:49:37;2.20;99.90
37844;DHT22;63793;57.632;18.292;2023-04-03T08:52:12;2.30;99.90
37844;DHT22;63793;57.632;18.292;2023-04-03T08:54:52;2.30;99.90
37844;DHT22;63793;57.632;18.292;2023-04-03T08:57:38;2.40;99.90
37844;DHT22;63793;57.632;18.292;2023-04-03T09:00:26;2.40;99.90
37844;DHT22;63793;57.632;18.292;2023-04-03T09:02:56;2.40;99.90
37844;DHT22;63793;57.632;18.292;2023-04-03T09:05:35;2.50;99.90
37844;DHT22;63793;57.632;18.292;2023-04-03T09:10:49;2.40;99.90
37844;DHT22;63793;57.632;18.292;2023-04-03T09:13:38;2.40;99.90
37844;DHT22;63793;57.632;18.292;2023-04-03T09:16:27;2.30;99.90
37844;DHT22;63793;57.632;18.292;2023-04-03T09:19:13;2.30;99.90
37844;DHT22;63793;57.632;18.292;2023-04-03T09:21:42;2.40;99.90
37844;DHT22;63793;57.632;18.292;2023-04-03T09:24:13;2.40;99.90
37844;DHT22;63793;57.632;18.292;2023-04-03T09:26:46;2.50;99.90
37844;DHT22;63793;57.632;18.292;2023-04-03T09:29:21;2.50;99.90
37844;DHT22;63793;57.632;18.292;2023-04-03T09:31:51;2.70;99.90
37844;DHT22;63793;57.632;18.292;2023-04-03T09:34:30;2.70;99.90
37844;DHT22;63793;57.632;18.292;2023-04-03T09:37:00;2.80;99.90
37844;DHT22;63793;57.632;18.292;2023-04-03T09:39:49;2.90;99.90
37844;DHT22;63793;57.632;18.292;2023-04-03T09:42:22;2.90;99.90
37844;DHT22;63793;57.632;18.292;2023-04-03T09:44:58;2.90;99.90
37844;DHT22;63793;57.632;18.292;2023-04-03T09:47:34;2.90;99.90
37844;DHT22;63793;57.632;18.292;2023-04-03T09:52:46;2.90;99.90
37844;DHT22;63793;57.632;18.292;2023-04-03T09:55:15;3.00;99.90
37844;DHT22;63793;57.632;18.292;2023-04-03T09:57:43;3.10;99.90
37844;DHT22;63793;57.632;18.292;2023-04-03T10:00:25;3.00;99.90
37844;DHT22;63793;57.632;18.292;2023-04-03T10:02:55;3.10;99.90
37844;DHT22;63793;57.632;18.292;2023-04-03T10:10:45;3.10;99.90
37844;DHT22;63793;57.632;18.292;2023-04-03T10:13:20;3.10;99.90
37844;DHT22;63793;57.632;18.292;2023-04-03T10:15:58;3.10;99.90
37844;DHT22;63793;57.632;18.292;2023-04-03T10:18:55;3.10;99.90
37844;DHT22;63793;57.632;18.292;2023-04-03T10:24:14;3.00;99.90
37844;DHT22;63793;57.632;18.292;2023-04-03T10:29:40;3.10;99.90
37844;DHT22;63793;57.632;18.292;2023-04-03T10:32:40;3.20;99.90
37844;DHT22;63793;57.632;18.292;2023-04-03T10:35:21;3.20;99.90
37844;DHT22;63793;57.632;18.292;2023-04-03T10:38:08;3.40;99.90
37844;DHT22;63793;57.632;18.292;2023-04-03T10:41:07;3.40;99.90
37844;DHT22;63793;57.632;18.292;2023-04-03T10:46:47;3.40;99.90
37844;DHT22;63793;57.632;18.292;2023-04-03T10:49:52;3.40;99.90
37844;DHT22;63793;57.632;18.292;2023-04-03T10:52:39;3.30;99.90
37844;DHT22;63793;57.632;18.292;2023-04-03T10:55:21;3.30;99.90
37844;DHT22;63793;57.632;18.292;2023-04-03T10:57:51;3.30;99.90
37844;DHT22;63793;57.632;18.292;2023-04-03T11:00:46;3.40;99.90
37844;DHT22;63793;57.632;18.292;2023-04-03T11:03:24;3.30;99.90
37844;DHT22;63793;57.632;18.292;2023-04-03T11:05:55;3.50;99.90
37844;DHT22;63793;57.632;18.292;2023-04-03T11:11:11;3.40;99.90
37844;DHT22;63793;57.632;18.292;2023-04-03T11:14:31;3.50;99.90
37844;DHT22;63793;57.632;18.292;2023-04-03T11:16:47;3.40;99.90
37844;DHT22;63793;57.632;18.292;2023-04-03T11:19:25;3.50;99.90
37844;DHT22;63793;57.632;18.292;2023-04-03T11:22:24;3.60;99.90
37844;DHT22;63793;57.632;18.292;2023-04-03T11:25:20;3.40;99.90
37844;DHT22;63793;57.632;18.292;2023-04-03T11:27:55;3.20;99.90
37844;DHT22;63793;57.632;18.292;2023-04-03T11:33:31;3.40;99.90
37844;DHT22;63793;57.632;18.292;2023-04-03T11:36:08;3.30;99.90
37844;DHT22;63793;57.632;18.292;2023-04-03T11:42:28;3.60;99.90
37844;DHT22;63793;57.632;18.292;2023-04-03T11:47:58;3.80;99.90
37844;DHT22;63793;57.632;18.292;2023-04-03T11:58:19;3.40;99.90
37844;DHT22;63793;57.632;18.292;2023-04-03T12:00:54;3.50;99.90
37844;DHT22;63793;57.632;18.292;2023-04-03T12:08:29;3.60;99.90
37844;DHT22;63793;57.632;18.292;2023-04-03T12:16:27;3.60;99.90
37844;DHT22;63793;57.632;18.292;2023-04-03T12:19:03;3.50;99.90
37844;DHT22;63793;57.632;18.292;2023-04-03T12:44:13;3.60;99.90
37844;DHT22;63793;57.632;18.292;2023-04-03T12:46:49;3.60;99.90
37844;DHT22;63793;57.632;18.292;2023-04-03T12:49:33;3.50;99.90
37844;DHT22;63793;57.632;18.292;2023-04-03T12:52:02;3.40;99.90
37844;DHT22;63793;57.632;18.292;2023-04-03T12:54:36;3.40;99.90
37844;DHT22;63793;57.632;18.292;2023-04-03T12:57:22;3.50;99.90
37844;DHT22;63793;57.632;18.292;2023-04-03T12:59:50;3.60;99.90
37844;DHT22;63793;57.632;18.292;2023-04-03T13:02:30;3.60;99.90
37844;DHT22;63793;57.632;18.292;2023-04-03T13:04:59;3.60;99.90
37844;DHT22;63793;57.632;18.292;2023-04-03T13:07:36;3.50;99.90
37844;DHT22;63793;57.632;18.292;2023-04-03T13:12:52;3.50;99.90
37844;DHT22;63793;57.632;18.292;2023-04-03T13:15:30;3.50;99.90
37844;DHT22;63793;57.632;18.292;2023-04-03T13:17:57;3.60;99.90
37844;DHT22;63793;57.632;18.292;2023-04-03T13:23:01;3.60;99.90
37844;DHT22;63793;57.632;18.292;2023-04-03T13:25:34;3.70;99.90
37844;DHT22;63793;57.632;18.292;2023-04-03T13:28:04;3.60;99.90
37844;DHT22;63793;57.632;18.292;2023-04-03T13:30:41;3.50;99.90
37844;DHT22;63793;57.632;18.292;2023-04-03T13:33:24;3.60;99.90
37844;DHT22;63793;57.632;18.292;2023-04-03T13:38:42;3.70;99.90
37844;DHT22;63793;57.632;18.292;2023-04-03T13:41:43;3.50;99.90
37844;DHT22;63793;57.632;18.292;2023-04-03T13:49:36;3.80;99.90
37844;DHT22;63793;57.632;18.292;2023-04-03T13:52:26;3.60;99.90
37844;DHT22;63793;57.632;18.292;2023-04-03T13:55:01;3.80;99.90
37844;DHT22;63793;57.632;18.292;2023-04-03T13:57:31;3.70;99.90
37844;DHT22;63793;57.632;18.292;2023-04-03T13:59:58;3.70;99.90
37844;DHT22;63793;57.632;18.292;2023-04-03T14:02:33;3.50;99.90
37844;DHT22;63793;57.632;18.292;2023-04-03T14:05:02;3.70;99.90
37844;DHT22;63793;57.632;18.292;2023-04-03T14:07:30;3.70;99.90
37844;DHT22;63793;57.632;18.292;2023-04-03T14:09:58;3.80;99.90
37844;DHT22;63793;57.632;18.292;2023-04-03T14:12:34;3.90;99.90
37844;DHT22;63793;57.632;18.292;2023-04-03T14:15:16;3.80;99.90
37844;DHT22;63793;57.632;18.292;2023-04-03T14:17:44;3.90;99.90
37844;DHT22;63793;57.632;18.292;2023-04-03T14:20:16;4.00;99.90
37844;DHT22;63793;57.632;18.292;2023-04-03T14:22:44;4.20;99.90
37844;DHT22;63793;57.632;18.292;2023-04-03T14:25:11;4.20;99.90
37844;DHT22;63793;57.632;18.292;2023-04-03T14:27:40;4.40;99.90
37844;DHT22;63793;57.632;18.292;2023-04-03T14:30:24;4.50;99.90
37844;DHT22;63793;57.632;18.292;2023-04-03T14:32:51;4.50;99.90
37844;DHT22;63793;57.632;18.292;2023-04-03T14:35:18;4.40;99.90
37844;DHT22;63793;57.632;18.292;2023-04-03T14:37:46;4.50;99.90
37844;DHT22;63793;57.632;18.292;2023-04-03T14:40:17;4.40;99.90
37844;DHT22;63793;57.632;18.292;2023-04-03T14:42:44;4.40;99.90
37844;DHT22;63793;57.632;18.292;2023-04-03T14:45:14;4.50;99.90
37844;DHT22;63793;57.632;18.292;2023-04-03T14:47:48;4.50;99.90
37844;DHT22;63793;57.632;18.292;2023-04-03T14:50:19;4.60;99.90
37844;DHT22;63793;57.632;18.292;2023-04-03T14:52:48;4.80;99.90
37844;DHT22;63793;57.632;18.292;2023-04-03T14:55:17;4.80;99.90
37844;DHT22;63793;57.632;18.292;2023-04-03T14:57:45;4.80;99.90
37844;DHT22;63793;57.632;18.292;2023-04-03T15:00:17;4.90;99.90
37844;DHT22;63793;57.632;18.292;2023-04-03T15:02:44;4.90;99.90
37844;DHT22;63793;57.632;18.292;2023-04-03T15:05:13;5.00;99.90
37844;DHT22;63793;57.632;18.292;2023-04-03T15:07:50;5.10;99.90
37844;DHT22;63793;57.632;18.292;2023-04-03T15:10:24;4.90;99.90
37844;DHT22;63793;57.632;18.292;2023-04-03T15:12:52;5.10;99.90
37844;DHT22;63793;57.632;18.292;2023-04-03T15:15:21;5.30;99.90
37844;DHT22;63793;57.632;18.292;2023-04-03T15:17:52;5.10;99.90
37844;DHT22;63793;57.632;18.292;2023-04-03T15:20:26;5.00;99.90
37844;DHT22;63793;57.632;18.292;2023-04-03T15:22:54;4.80;99.90
37844;DHT22;63793;57.632;18.292;2023-04-03T15:25:23;4.90;99.90
37844;DHT22;63793;57.632;18.292;2023-04-03T15:27:53;5.10;99.90
37844;DHT22;63793;57.632;18.292;2023-04-03T15:30:21;4.90;99.90
37844;DHT22;63793;57.632;18.292;2023-04-03T15:32:48;4.90;99.90
37844;DHT22;63793;57.632;18.292;2023-04-03T15:35:15;4.80;99.90
37844;DHT22;63793;57.632;18.292;2023-04-03T15:37:42;4.70;99.90
37844;DHT22;63793;57.632;18.292;2023-04-03T15:40:09;4.50;99.90
37844;DHT22;63793;57.632;18.292;2023-04-03T15:42:37;4.60;99.90
37844;DHT22;63793;57.632;18.292;2023-04-03T15:45:04;4.70;99.90
37844;DHT22;63793;57.632;18.292;2023-04-03T15:47:31;4.60;99.90
37844;DHT22;63793;57.632;18.292;2023-04-03T15:49:58;4.70;99.90
37844;DHT22;63793;57.632;18.292;2023-04-03T15:52:25;4.80;99.90
37844;DHT22;63793;57.632;18.292;2023-04-03T15:54:52;4.80;99.90
37844;DHT22;63793;57.632;18.292;2023-04-03T15:57:19;4.60;99.90
37844;DHT22;63793;57.632;18.292;2023-04-03T15:59:46;4.50;99.90
37844;DHT22;63793;57.632;18.292;2023-04-03T16:02:13;4.60;99.90
37844;DHT22;63793;57.632;18.292;2023-04-03T16:04:40;4.60;99.90
37844;DHT22;63793;57.632;18.292;2023-04-03T16:07:07;4.40;99.90
37844;DHT22;63793;57.632;18.292;2023-04-03T16:09:35;4.20;99.90
37844;DHT22;63793;57.632;18.292;2023-04-03T16:12:02;4.20;99.90
37844;DHT22;63793;57.632;18.292;2023-04-03T16:14:30;4.10;99.90
37844;DHT22;63793;57.632;18.292;2023-04-03T16:16:58;4.20;99.90
37844;DHT22;63793;57.632;18.292;2023-04-03T16:19:29;4.40;99.90
37844;DHT22;63793;57.632;18.292;2023-04-03T16:21:56;4.10;99.90
37844;DHT22;63793;57.632;18.292;2023-04-03T16:24:23;4.30;99.90
37844;DHT22;63793;57.632;18.292;2023-04-03T16:26:50;4.40;99.90
37844;DHT22;63793;57.632;18.292;2023-04-03T16:29:17;4.60;99.90
37844;DHT22;63793;57.632;18.292;2023-04-03T16:31:44;4.30;99.90
37844;DHT22;63793;57.632;18.292;2023-04-03T16:34:11;4.40;99.90
37844;DHT22;63793;57.632;18.292;2023-04-03T16:36:38;4.70;99.90
37844;DHT22;63793;57.632;18.292;2023-04-03T16:39:05;4.70;99.90
37844;DHT22;63793;57.632;18.292;2023-04-03T16:41:32;4.80;99.90
37844;DHT22;63793;57.632;18.292;2023-04-03T16:43:59;4.50;99.90
37844;DHT22;63793;57.632;18.292;2023-04-03T16:46:26;4.80;99.90
37844;DHT22;63793;57.632;18.292;2023-04-03T16:48:53;4.90;99.90
37844;DHT22;63793;57.632;18.292;2023-04-03T16:51:20;5.00;99.90
37844;DHT22;63793;57.632;18.292;2023-04-03T16:53:47;4.60;99.90
37844;DHT22;63793;57.632;18.292;2023-04-03T16:56:14;4.40;99.90
37844;DHT22;63793;57.632;18.292;2023-04-03T16:58:41;4.20;99.90
37844;DHT22;63793;57.632;18.292;2023-04-03T17:01:14;4.20;99.90
37844;DHT22;63793;57.632;18.292;2023-04-03T17:03:41;4.20;99.90
37844;DHT22;63793;57.632;18.292;2023-04-03T17:06:11;3.80;99.90
37844;DHT22;63793;57.632;18.292;2023-04-03T17:08:44;3.50;99.90
37844;DHT22;63793;57.632;18.292;2023-04-03T17:11:25;3.20;99.90
37844;DHT22;63793;57.632;18.292;2023-04-03T17:13:52;3.00;99.90
37844;DHT22;63793;57.632;18.292;2023-04-03T17:16:19;2.80;99.90
37844;DHT22;63793;57.632;18.292;2023-04-03T17:18:47;2.50;99.90
37844;DHT22;63793;57.632;18.292;2023-04-03T17:21:14;2.50;99.90
37844;DHT22;63793;57.632;18.292;2023-04-03T17:23:45;2.30;99.90
37844;DHT22;63793;57.632;18.292;2023-04-03T17:26:12;2.20;99.90
37844;DHT22;63793;57.632;18.292;2023-04-03T17:28:39;2.20;99.90
37844;DHT22;63793;57.632;18.292;2023-04-03T17:31:09;2.10;99.90